sensor_id;sensor_type;location;lat;lon;timestamp;P1;durP1;ratioP1;P2;durP2;ratioP2
57249;SDS011;43102;52.014;-0.680;2022-07-23T00:00:00;4.50;;;3.20;;
57249;SDS011;43102;52.014;-0.680;2022-07-23T00:01:00;4.50;;;3.20;;
57249;SDS011;43102;52.014;-0.680;2022-07-23T00:02:00;4.50;;;3.20;;
57249;SDS011;43102;52.014;-0.680;2022-07-23T00:03:00;4.50;;;3.20;;
57249;SDS011;43102;52.014;-0.680;2022-07-23T00:04:00;4.50;;;3.20;;
57249;SDS011;43102;52.014;-0.680;2022-07-23T00:05:00;4.50;;;3.20;;
57249;SDS011;43102;52.014;-0.680;2022-07-23T00:06:00;4.50;;;3.20;;
57249;SDS011;43102;52.014;-0.680;2022-07-23T00:07:00;4.50;;;3.20;;
57249;SDS011;43102;52.014;-0.680;2022-07-23T00:08:00;4.50;;;3.20;;
57249;SDS011;43102;52.014;-0.680;2022-07-23T00:09:01;4.50;;;3.20;;
57249;SDS011;43102;52.014;-0.680;2022-07-23T00:10:00;4.50;;;3.20;;
57249;SDS011;43102;52.014;-0.680;2022-07-23T00:11:00;4.50;;;3.20;;
57249;SDS011;43102;52.014;-0.680;2022-07-23T00:12:00;4.50;;;3.20;;
57249;SDS011;43102;52.014;-0.680;2022-07-23T00:13:00;4.50;;;3.20;;
57249;SDS011;43102;52.014;-0.680;2022-07-23T00:14:00;4.50;;;3.20;;
57249;SDS011;43102;52.014;-0.680;2022-07-23T00:15:00;4.50;;;3.20;;
57249;SDS011;43102;52.014;-0.680;2022-07-23T00:16:00;4.50;;;3.20;;
57249;SDS011;43102;52.014;-0.680;2022-07-23T00:17:00;4.50;;;3.20;;
57249;SDS011;43102;52.014;-0.680;2022-07-23T00:18:00;4.50;;;3.20;;
57249;SDS011;43102;52.014;-0.680;2022-07-23T00:19:02;4.50;;;3.20;;
57249;SDS011;43102;52.014;-0.680;2022-07-23T00:20:00;4.50;;;3.20;;
57249;SDS011;43102;52.014;-0.680;2022-07-23T00:21:00;4.50;;;3.20;;
57249;SDS011;43102;52.014;-0.680;2022-07-23T00:22:00;4.50;;;3.20;;
57249;SDS011;43102;52.014;-0.680;2022-07-23T00:23:00;4.50;;;3.20;;
57249;SDS011;43102;52.014;-0.680;2022-07-23T00:24:00;4.50;;;3.20;;
57249;SDS011;43102;52.014;-0.680;2022-07-23T00:25:10;4.50;;;3.20;;
57249;SDS011;43102;52.014;-0.680;2022-07-23T00:26:00;4.50;;;3.20;;
57249;SDS011;43102;52.014;-0.680;2022-07-23T00:27:00;4.50;;;3.20;;
57249;SDS011;43102;52.014;-0.680;2022-07-23T00:28:01;4.60;;;3.80;;
57249;SDS011;43102;52.014;-0.680;2022-07-23T00:29:00;4.60;;;3.80;;
57249;SDS011;43102;52.014;-0.680;2022-07-23T00:30:00;4.60;;;3.80;;
57249;SDS011;43102;52.014;-0.680;2022-07-23T00:31:00;4.60;;;3.80;;
57249;SDS011;43102;52.014;-0.680;2022-07-23T00:32:00;4.60;;;3.80;;
57249;SDS011;43102;52.014;-0.680;2022-07-23T00:33:04;4.60;;;3.80;;
57249;SDS011;43102;52.014;-0.680;2022-07-23T00:34:01;4.60;;;3.80;;
57249;SDS011;43102;52.014;-0.680;2022-07-23T00:35:00;4.60;;;3.80;;
57249;SDS011;43102;52.014;-0.680;2022-07-23T00:36:00;4.60;;;3.80;;
57249;SDS011;43102;52.014;-0.680;2022-07-23T00:37:00;4.60;;;3.80;;
57249;SDS011;43102;52.014;-0.680;2022-07-23T00:38:01;4.60;;;3.80;;
57249;SDS011;43102;52.014;-0.680;2022-07-23T00:39:01;4.60;;;3.80;;
57249;SDS011;43102;52.014;-0.680;2022-07-23T00:40:00;4.60;;;3.80;;
57249;SDS011;43102;52.014;-0.680;2022-07-23T00:41:00;4.60;;;3.80;;
57249;SDS011;43102;52.014;-0.680;2022-07-23T00:42:00;4.60;;;3.80;;
57249;SDS011;43102;52.014;-0.680;2022-07-23T00:43:00;4.60;;;3.80;;
57249;SDS011;43102;52.014;-0.680;2022-07-23T00:44:14;4.60;;;3.80;;
57249;SDS011;43102;52.014;-0.680;2022-07-23T00:45:00;4.60;;;3.80;;
57249;SDS011;43102;52.014;-0.680;2022-07-23T00:46:00;4.60;;;3.80;;
57249;SDS011;43102;52.014;-0.680;2022-07-23T00:47:00;4.60;;;3.80;;
57249;SDS011;43102;52.014;-0.680;2022-07-23T00:48:00;4.60;;;3.80;;
57249;SDS011;43102;52.014;-0.680;2022-07-23T00:49:00;4.60;;;3.80;;
57249;SDS011;43102;52.014;-0.680;2022-07-23T00:50:01;4.60;;;3.80;;
57249;SDS011;43102;52.014;-0.680;2022-07-23T00:51:00;4.60;;;3.80;;
57249;SDS011;43102;52.014;-0.680;2022-07-23T00:52:01;4.60;;;3.80;;
57249;SDS011;43102;52.014;-0.680;2022-07-23T00:53:00;4.60;;;3.80;;
57249;SDS011;43102;52.014;-0.680;2022-07-23T00:54:00;4.60;;;3.80;;
57249;SDS011;43102;52.014;-0.680;2022-07-23T00:55:00;4.60;;;3.80;;
57249;SDS011;43102;52.014;-0.680;2022-07-23T00:56:00;4.60;;;3.80;;
57249;SDS011;43102;52.014;-0.680;2022-07-23T00:57:00;4.60;;;3.80;;
57249;SDS011;43102;52.014;-0.680;2022-07-23T00:58:01;7.00;;;4.10;;
57249;SDS011;43102;52.014;-0.680;2022-07-23T00:59:01;7.00;;;4.10;;
57249;SDS011;43102;52.014;-0.680;2022-07-23T01:00:00;7.00;;;4.10;;
57249;SDS011;43102;52.014;-0.680;2022-07-23T01:01:00;7.00;;;4.10;;
57249;SDS011;43102;52.014;-0.680;2022-07-23T01:02:00;7.00;;;4.10;;
57249;SDS011;43102;52.014;-0.680;2022-07-23T01:03:00;7.00;;;4.10;;
57249;SDS011;43102;52.014;-0.680;2022-07-23T01:04:00;7.00;;;4.10;;
57249;SDS011;43102;52.014;-0.680;2022-07-23T01:05:00;7.00;;;4.10;;
57249;SDS011;43102;52.014;-0.680;2022-07-23T01:06:00;7.00;;;4.10;;
57249;SDS011;43102;52.014;-0.680;2022-07-23T01:07:00;7.00;;;4.10;;
57249;SDS011;43102;52.014;-0.680;2022-07-23T01:08:00;7.00;;;4.10;;
57249;SDS011;43102;52.014;-0.680;2022-07-23T01:09:01;7.00;;;4.10;;
57249;SDS011;43102;52.014;-0.680;2022-07-23T01:10:00;7.00;;;4.10;;
57249;SDS011;43102;52.014;-0.680;2022-07-23T01:11:00;7.00;;;4.10;;
57249;SDS011;43102;52.014;-0.680;2022-07-23T01:12:00;7.00;;;4.10;;
57249;SDS011;43102;52.014;-0.680;2022-07-23T01:13:05;7.00;;;4.10;;
57249;SDS011;43102;52.014;-0.680;2022-07-23T01:14:08;7.00;;;4.10;;
57249;SDS011;43102;52.014;-0.680;2022-07-23T01:15:00;7.00;;;4.10;;
57249;SDS011;43102;52.014;-0.680;2022-07-23T01:16:00;7.00;;;4.10;;
57249;SDS011;43102;52.014;-0.680;2022-07-23T01:17:00;7.00;;;4.10;;
57249;SDS011;43102;52.014;-0.680;2022-07-23T01:18:01;7.00;;;4.10;;
57249;SDS011;43102;52.014;-0.680;2022-07-23T01:19:01;7.00;;;4.10;;
57249;SDS011;43102;52.014;-0.680;2022-07-23T01:20:00;7.00;;;4.10;;
57249;SDS011;43102;52.014;-0.680;2022-07-23T01:21:00;7.00;;;4.10;;
57249;SDS011;43102;52.014;-0.680;2022-07-23T01:22:02;7.00;;;4.10;;
57249;SDS011;43102;52.014;-0.680;2022-07-23T01:23:00;7.00;;;4.10;;
57249;SDS011;43102;52.014;-0.680;2022-07-23T01:24:00;7.00;;;4.10;;
57249;SDS011;43102;52.014;-0.680;2022-07-23T01:25:00;7.00;;;4.10;;
57249;SDS011;43102;52.014;-0.680;2022-07-23T01:26:00;7.00;;;4.10;;
57249;SDS011;43102;52.014;-0.680;2022-07-23T01:27:00;7.00;;;4.10;;
57249;SDS011;43102;52.014;-0.680;2022-07-23T01:28:00;5.90;;;3.70;;
57249;SDS011;43102;52.014;-0.680;2022-07-23T01:29:01;5.90;;;3.70;;
57249;SDS011;43102;52.014;-0.680;2022-07-23T01:30:00;5.90;;;3.70;;
57249;SDS011;43102;52.014;-0.680;2022-07-23T01:31:01;5.90;;;3.70;;
57249;SDS011;43102;52.014;-0.680;2022-07-23T01:32:00;5.90;;;3.70;;
57249;SDS011;43102;52.014;-0.680;2022-07-23T01:33:00;5.90;;;3.70;;
57249;SDS011;43102;52.014;-0.680;2022-07-23T01:34:00;5.90;;;3.70;;
57249;SDS011;43102;52.014;-0.680;2022-07-23T01:35:00;5.90;;;3.70;;
57249;SDS011;43102;52.014;-0.680;2022-07-23T01:36:00;5.90;;;3.70;;
57249;SDS011;43102;52.014;-0.680;2022-07-23T01:37:00;5.90;;;3.70;;
57249;SDS011;43102;52.014;-0.680;2022-07-23T01:38:00;5.90;;;3.70;;
57249;SDS011;43102;52.014;-0.680;2022-07-23T01:39:02;5.90;;;3.70;;
57249;SDS011;43102;52.014;-0.680;2022-07-23T01:40:03;5.90;;;3.70;;
57249;SDS011;43102;52.014;-0.680;2022-07-23T01:41:01;5.90;;;3.70;;
57249;SDS011;43102;52.014;-0.680;2022-07-23T01:42:00;5.90;;;3.70;;
57249;SDS011;43102;52.014;-0.680;2022-07-23T01:43:01;5.90;;;3.70;;
57249;SDS011;43102;52.014;-0.680;2022-07-23T01:44:00;5.90;;;3.70;;
57249;SDS011;43102;52.014;-0.680;2022-07-23T01:45:00;5.90;;;3.70;;
57249;SDS011;43102;52.014;-0.680;2022-07-23T01:46:00;5.90;;;3.70;;
57249;SDS011;43102;52.014;-0.680;2022-07-23T01:47:00;5.90;;;3.70;;
57249;SDS011;43102;52.014;-0.680;2022-07-23T01:48:00;5.90;;;3.70;;
57249;SDS011;43102;52.014;-0.680;2022-07-23T01:49:01;5.90;;;3.70;;
57249;SDS011;43102;52.014;-0.680;2022-07-23T01:50:00;5.90;;;3.70;;
57249;SDS011;43102;52.014;-0.680;2022-07-23T01:51:00;5.90;;;3.70;;
57249;SDS011;43102;52.014;-0.680;2022-07-23T01:52:00;5.90;;;3.70;;
57249;SDS011;43102;52.014;-0.680;2022-07-23T01:53:00;5.90;;;3.70;;
57249;SDS011;43102;52.014;-0.680;2022-07-23T01:54:00;5.90;;;3.70;;
57249;SDS011;43102;52.014;-0.680;2022-07-23T01:55:00;5.90;;;3.70;;
57249;SDS011;43102;52.014;-0.680;2022-07-23T01:56:00;5.90;;;3.70;;
57249;SDS011;43102;52.014;-0.680;2022-07-23T01:57:00;5.90;;;3.70;;
57249;SDS011;43102;52.014;-0.680;2022-07-23T01:58:01;6.70;;;4.50;;
57249;SDS011;43102;52.014;-0.680;2022-07-23T01:59:00;6.70;;;4.50;;
57249;SDS011;43102;52.014;-0.680;2022-07-23T02:00:00;6.70;;;4.50;;
57249;SDS011;43102;52.014;-0.680;2022-07-23T02:01:00;6.70;;;4.50;;
57249;SDS011;43102;52.014;-0.680;2022-07-23T02:02:00;6.70;;;4.50;;
57249;SDS011;43102;52.014;-0.680;2022-07-23T02:03:00;6.70;;;4.50;;
57249;SDS011;43102;52.014;-0.680;2022-07-23T02:04:00;6.70;;;4.50;;
57249;SDS011;43102;52.014;-0.680;2022-07-23T02:05:00;6.70;;;4.50;;
57249;SDS011;43102;52.014;-0.680;2022-07-23T02:06:00;6.70;;;4.50;;
57249;SDS011;43102;52.014;-0.680;2022-07-23T02:07:00;6.70;;;4.50;;
57249;SDS011;43102;52.014;-0.680;2022-07-23T02:08:00;6.70;;;4.50;;
57249;SDS011;43102;52.014;-0.680;2022-07-23T02:09:01;6.70;;;4.50;;
57249;SDS011;43102;52.014;-0.680;2022-07-23T02:10:00;6.70;;;4.50;;
57249;SDS011;43102;52.014;-0.680;2022-07-23T02:11:00;6.70;;;4.50;;
57249;SDS011;43102;52.014;-0.680;2022-07-23T02:12:00;6.70;;;4.50;;
57249;SDS011;43102;52.014;-0.680;2022-07-23T02:13:00;6.70;;;4.50;;
57249;SDS011;43102;52.014;-0.680;2022-07-23T02:14:00;6.70;;;4.50;;
57249;SDS011;43102;52.014;-0.680;2022-07-23T02:15:00;6.70;;;4.50;;
57249;SDS011;43102;52.014;-0.680;2022-07-23T02:16:00;6.70;;;4.50;;
57249;SDS011;43102;52.014;-0.680;2022-07-23T02:17:00;6.70;;;4.50;;
57249;SDS011;43102;52.014;-0.680;2022-07-23T02:18:00;6.70;;;4.50;;
57249;SDS011;43102;52.014;-0.680;2022-07-23T02:19:00;6.70;;;4.50;;
57249;SDS011;43102;52.014;-0.680;2022-07-23T02:20:00;6.70;;;4.50;;
57249;SDS011;43102;52.014;-0.680;2022-07-23T02:21:00;6.70;;;4.50;;
57249;SDS011;43102;52.014;-0.680;2022-07-23T02:22:00;6.70;;;4.50;;
57249;SDS011;43102;52.014;-0.680;2022-07-23T02:23:00;6.70;;;4.50;;
57249;SDS011;43102;52.014;-0.680;2022-07-23T02:24:00;6.70;;;4.50;;
57249;SDS011;43102;52.014;-0.680;2022-07-23T02:25:00;6.70;;;4.50;;
57249;SDS011;43102;52.014;-0.680;2022-07-23T02:26:00;6.70;;;4.50;;
57249;SDS011;43102;52.014;-0.680;2022-07-23T02:27:00;6.70;;;4.50;;
57249;SDS011;43102;52.014;-0.680;2022-07-23T02:28:00;5.90;;;4.50;;
57249;SDS011;43102;52.014;-0.680;2022-07-23T02:29:02;5.90;;;4.50;;
57249;SDS011;43102;52.014;-0.680;2022-07-23T02:30:00;5.90;;;4.50;;
57249;SDS011;43102;52.014;-0.680;2022-07-23T02:31:00;5.90;;;4.50;;
57249;SDS011;43102;52.014;-0.680;2022-07-23T02:32:00;5.90;;;4.50;;
57249;SDS011;43102;52.014;-0.680;2022-07-23T02:33:00;5.90;;;4.50;;
57249;SDS011;43102;52.014;-0.680;2022-07-23T02:34:00;5.90;;;4.50;;
57249;SDS011;43102;52.014;-0.680;2022-07-23T02:35:00;5.90;;;4.50;;
57249;SDS011;43102;52.014;-0.680;2022-07-23T02:36:00;5.90;;;4.50;;
57249;SDS011;43102;52.014;-0.680;2022-07-23T02:37:00;5.90;;;4.50;;
57249;SDS011;43102;52.014;-0.680;2022-07-23T02:38:00;5.90;;;4.50;;
57249;SDS011;43102;52.014;-0.680;2022-07-23T02:39:00;5.90;;;4.50;;
57249;SDS011;43102;52.014;-0.680;2022-07-23T02:40:00;5.90;;;4.50;;
57249;SDS011;43102;52.014;-0.680;2022-07-23T02:41:00;5.90;;;4.50;;
57249;SDS011;43102;52.014;-0.680;2022-07-23T02:42:00;5.90;;;4.50;;
57249;SDS011;43102;52.014;-0.680;2022-07-23T02:43:00;5.90;;;4.50;;
57249;SDS011;43102;52.014;-0.680;2022-07-23T02:44:00;5.90;;;4.50;;
57249;SDS011;43102;52.014;-0.680;2022-07-23T02:45:00;5.90;;;4.50;;
57249;SDS011;43102;52.014;-0.680;2022-07-23T02:46:00;5.90;;;4.50;;
57249;SDS011;43102;52.014;-0.680;2022-07-23T02:47:00;5.90;;;4.50;;
57249;SDS011;43102;52.014;-0.680;2022-07-23T02:48:00;5.90;;;4.50;;
57249;SDS011;43102;52.014;-0.680;2022-07-23T02:49:01;5.90;;;4.50;;
57249;SDS011;43102;52.014;-0.680;2022-07-23T02:50:00;5.90;;;4.50;;
57249;SDS011;43102;52.014;-0.680;2022-07-23T02:51:00;5.90;;;4.50;;
57249;SDS011;43102;52.014;-0.680;2022-07-23T02:52:00;5.90;;;4.50;;
57249;SDS011;43102;52.014;-0.680;2022-07-23T02:53:00;5.90;;;4.50;;
57249;SDS011;43102;52.014;-0.680;2022-07-23T02:54:00;5.90;;;4.50;;
57249;SDS011;43102;52.014;-0.680;2022-07-23T02:55:00;5.90;;;4.50;;
57249;SDS011;43102;52.014;-0.680;2022-07-23T02:56:00;5.90;;;4.50;;
57249;SDS011;43102;52.014;-0.680;2022-07-23T02:57:00;5.90;;;4.50;;
57249;SDS011;43102;52.014;-0.680;2022-07-23T02:58:00;8.10;;;5.30;;
57249;SDS011;43102;52.014;-0.680;2022-07-23T02:59:01;8.10;;;5.30;;
57249;SDS011;43102;52.014;-0.680;2022-07-23T03:00:00;8.10;;;5.30;;
57249;SDS011;43102;52.014;-0.680;2022-07-23T03:01:00;8.10;;;5.30;;
57249;SDS011;43102;52.014;-0.680;2022-07-23T03:02:00;8.10;;;5.30;;
57249;SDS011;43102;52.014;-0.680;2022-07-23T03:03:00;8.10;;;5.30;;
57249;SDS011;43102;52.014;-0.680;2022-07-23T03:04:00;8.10;;;5.30;;
57249;SDS011;43102;52.014;-0.680;2022-07-23T03:05:01;8.10;;;5.30;;
57249;SDS011;43102;52.014;-0.680;2022-07-23T03:06:00;8.10;;;5.30;;
57249;SDS011;43102;52.014;-0.680;2022-07-23T03:07:00;8.10;;;5.30;;
57249;SDS011;43102;52.014;-0.680;2022-07-23T03:08:00;8.10;;;5.30;;
57249;SDS011;43102;52.014;-0.680;2022-07-23T03:09:01;8.10;;;5.30;;
57249;SDS011;43102;52.014;-0.680;2022-07-23T03:10:00;8.10;;;5.30;;
57249;SDS011;43102;52.014;-0.680;2022-07-23T03:11:00;8.10;;;5.30;;
57249;SDS011;43102;52.014;-0.680;2022-07-23T03:12:00;8.10;;;5.30;;
57249;SDS011;43102;52.014;-0.680;2022-07-23T03:13:00;8.10;;;5.30;;
57249;SDS011;43102;52.014;-0.680;2022-07-23T03:14:00;8.10;;;5.30;;
57249;SDS011;43102;52.014;-0.680;2022-07-23T03:15:00;8.10;;;5.30;;
57249;SDS011;43102;52.014;-0.680;2022-07-23T03:16:00;8.10;;;5.30;;
57249;SDS011;43102;52.014;-0.680;2022-07-23T03:17:00;8.10;;;5.30;;
57249;SDS011;43102;52.014;-0.680;2022-07-23T03:18:00;8.10;;;5.30;;
57249;SDS011;43102;52.014;-0.680;2022-07-23T03:19:01;8.10;;;5.30;;
57249;SDS011;43102;52.014;-0.680;2022-07-23T03:20:00;8.10;;;5.30;;
57249;SDS011;43102;52.014;-0.680;2022-07-23T03:21:00;8.10;;;5.30;;
57249;SDS011;43102;52.014;-0.680;2022-07-23T03:22:00;8.10;;;5.30;;
57249;SDS011;43102;52.014;-0.680;2022-07-23T03:23:00;8.10;;;5.30;;
57249;SDS011;43102;52.014;-0.680;2022-07-23T03:24:01;8.10;;;5.30;;
57249;SDS011;43102;52.014;-0.680;2022-07-23T03:25:01;8.10;;;5.30;;
57249;SDS011;43102;52.014;-0.680;2022-07-23T03:26:00;8.10;;;5.30;;
57249;SDS011;43102;52.014;-0.680;2022-07-23T03:27:00;8.10;;;5.30;;
57249;SDS011;43102;52.014;-0.680;2022-07-23T03:28:00;8.70;;;5.70;;
57249;SDS011;43102;52.014;-0.680;2022-07-23T03:29:03;8.70;;;5.70;;
57249;SDS011;43102;52.014;-0.680;2022-07-23T03:30:01;8.70;;;5.70;;
57249;SDS011;43102;52.014;-0.680;2022-07-23T03:31:00;8.70;;;5.70;;
57249;SDS011;43102;52.014;-0.680;2022-07-23T03:32:01;8.70;;;5.70;;
57249;SDS011;43102;52.014;-0.680;2022-07-23T03:33:00;8.70;;;5.70;;
57249;SDS011;43102;52.014;-0.680;2022-07-23T03:34:00;8.70;;;5.70;;
57249;SDS011;43102;52.014;-0.680;2022-07-23T03:35:00;8.70;;;5.70;;
57249;SDS011;43102;52.014;-0.680;2022-07-23T03:36:00;8.70;;;5.70;;
57249;SDS011;43102;52.014;-0.680;2022-07-23T03:37:03;8.70;;;5.70;;
57249;SDS011;43102;52.014;-0.680;2022-07-23T03:38:01;8.70;;;5.70;;
57249;SDS011;43102;52.014;-0.680;2022-07-23T03:39:03;8.70;;;5.70;;
57249;SDS011;43102;52.014;-0.680;2022-07-23T03:40:00;8.70;;;5.70;;
57249;SDS011;43102;52.014;-0.680;2022-07-23T03:41:03;8.70;;;5.70;;
57249;SDS011;43102;52.014;-0.680;2022-07-23T03:42:00;8.70;;;5.70;;
57249;SDS011;43102;52.014;-0.680;2022-07-23T03:43:00;8.70;;;5.70;;
57249;SDS011;43102;52.014;-0.680;2022-07-23T03:44:00;8.70;;;5.70;;
57249;SDS011;43102;52.014;-0.680;2022-07-23T03:45:01;8.70;;;5.70;;
57249;SDS011;43102;52.014;-0.680;2022-07-23T03:46:00;8.70;;;5.70;;
57249;SDS011;43102;52.014;-0.680;2022-07-23T03:47:00;8.70;;;5.70;;
57249;SDS011;43102;52.014;-0.680;2022-07-23T03:48:00;8.70;;;5.70;;
57249;SDS011;43102;52.014;-0.680;2022-07-23T03:49:01;8.70;;;5.70;;
57249;SDS011;43102;52.014;-0.680;2022-07-23T03:50:00;8.70;;;5.70;;
57249;SDS011;43102;52.014;-0.680;2022-07-23T03:51:00;8.70;;;5.70;;
57249;SDS011;43102;52.014;-0.680;2022-07-23T03:52:00;8.70;;;5.70;;
57249;SDS011;43102;52.014;-0.680;2022-07-23T03:53:00;8.70;;;5.70;;
57249;SDS011;43102;52.014;-0.680;2022-07-23T03:54:00;8.70;;;5.70;;
57249;SDS011;43102;52.014;-0.680;2022-07-23T03:55:00;8.70;;;5.70;;
57249;SDS011;43102;52.014;-0.680;2022-07-23T03:56:00;8.70;;;5.70;;
57249;SDS011;43102;52.014;-0.680;2022-07-23T03:57:00;8.70;;;5.70;;
57249;SDS011;43102;52.014;-0.680;2022-07-23T03:58:00;8.00;;;5.10;;
57249;SDS011;43102;52.014;-0.680;2022-07-23T03:59:00;8.00;;;5.10;;
57249;SDS011;43102;52.014;-0.680;2022-07-23T04:00:01;8.00;;;5.10;;
57249;SDS011;43102;52.014;-0.680;2022-07-23T04:01:00;8.00;;;5.10;;
57249;SDS011;43102;52.014;-0.680;2022-07-23T04:02:00;8.00;;;5.10;;
57249;SDS011;43102;52.014;-0.680;2022-07-23T04:03:00;8.00;;;5.10;;
57249;SDS011;43102;52.014;-0.680;2022-07-23T04:04:01;8.00;;;5.10;;
57249;SDS011;43102;52.014;-0.680;2022-07-23T04:05:00;8.00;;;5.10;;
57249;SDS011;43102;52.014;-0.680;2022-07-23T04:06:00;8.00;;;5.10;;
57249;SDS011;43102;52.014;-0.680;2022-07-23T04:07:01;8.00;;;5.10;;
57249;SDS011;43102;52.014;-0.680;2022-07-23T04:08:00;8.00;;;5.10;;
57249;SDS011;43102;52.014;-0.680;2022-07-23T04:09:01;8.00;;;5.10;;
57249;SDS011;43102;52.014;-0.680;2022-07-23T04:10:00;8.00;;;5.10;;
57249;SDS011;43102;52.014;-0.680;2022-07-23T04:11:00;8.00;;;5.10;;
57249;SDS011;43102;52.014;-0.680;2022-07-23T04:12:01;8.00;;;5.10;;
57249;SDS011;43102;52.014;-0.680;2022-07-23T04:13:00;8.00;;;5.10;;
57249;SDS011;43102;52.014;-0.680;2022-07-23T04:14:00;8.00;;;5.10;;
57249;SDS011;43102;52.014;-0.680;2022-07-23T04:15:00;8.00;;;5.10;;
57249;SDS011;43102;52.014;-0.680;2022-07-23T04:16:00;8.00;;;5.10;;
57249;SDS011;43102;52.014;-0.680;2022-07-23T04:17:00;8.00;;;5.10;;
57249;SDS011;43102;52.014;-0.680;2022-07-23T04:18:00;8.00;;;5.10;;
57249;SDS011;43102;52.014;-0.680;2022-07-23T04:19:01;8.00;;;5.10;;
57249;SDS011;43102;52.014;-0.680;2022-07-23T04:20:00;8.00;;;5.10;;
57249;SDS011;43102;52.014;-0.680;2022-07-23T04:21:00;8.00;;;5.10;;
57249;SDS011;43102;52.014;-0.680;2022-07-23T04:22:00;8.00;;;5.10;;
57249;SDS011;43102;52.014;-0.680;2022-07-23T04:23:01;8.00;;;5.10;;
57249;SDS011;43102;52.014;-0.680;2022-07-23T04:24:00;8.00;;;5.10;;
57249;SDS011;43102;52.014;-0.680;2022-07-23T04:25:00;8.00;;;5.10;;
57249;SDS011;43102;52.014;-0.680;2022-07-23T04:26:00;8.00;;;5.10;;
57249;SDS011;43102;52.014;-0.680;2022-07-23T04:27:00;8.00;;;5.10;;
57249;SDS011;43102;52.014;-0.680;2022-07-23T04:28:00;7.70;;;5.70;;
57249;SDS011;43102;52.014;-0.680;2022-07-23T04:29:01;7.70;;;5.70;;
57249;SDS011;43102;52.014;-0.680;2022-07-23T04:30:00;7.70;;;5.70;;
57249;SDS011;43102;52.014;-0.680;2022-07-23T04:31:00;7.70;;;5.70;;
57249;SDS011;43102;52.014;-0.680;2022-07-23T04:32:01;7.70;;;5.70;;
57249;SDS011;43102;52.014;-0.680;2022-07-23T04:33:00;7.70;;;5.70;;
57249;SDS011;43102;52.014;-0.680;2022-07-23T04:34:00;7.70;;;5.70;;
57249;SDS011;43102;52.014;-0.680;2022-07-23T04:35:00;7.70;;;5.70;;
57249;SDS011;43102;52.014;-0.680;2022-07-23T04:36:00;7.70;;;5.70;;
57249;SDS011;43102;52.014;-0.680;2022-07-23T04:37:00;7.70;;;5.70;;
57249;SDS011;43102;52.014;-0.680;2022-07-23T04:38:00;7.70;;;5.70;;
57249;SDS011;43102;52.014;-0.680;2022-07-23T04:39:00;7.70;;;5.70;;
57249;SDS011;43102;52.014;-0.680;2022-07-23T04:40:00;7.70;;;5.70;;
57249;SDS011;43102;52.014;-0.680;2022-07-23T04:41:00;7.70;;;5.70;;
57249;SDS011;43102;52.014;-0.680;2022-07-23T04:42:00;7.70;;;5.70;;
57249;SDS011;43102;52.014;-0.680;2022-07-23T04:43:00;7.70;;;5.70;;
57249;SDS011;43102;52.014;-0.680;2022-07-23T04:44:01;7.70;;;5.70;;
57249;SDS011;43102;52.014;-0.680;2022-07-23T04:45:00;7.70;;;5.70;;
57249;SDS011;43102;52.014;-0.680;2022-07-23T04:46:00;7.70;;;5.70;;
57249;SDS011;43102;52.014;-0.680;2022-07-23T04:47:00;7.70;;;5.70;;
57249;SDS011;43102;52.014;-0.680;2022-07-23T04:48:01;7.70;;;5.70;;
57249;SDS011;43102;52.014;-0.680;2022-07-23T04:49:01;7.70;;;5.70;;
57249;SDS011;43102;52.014;-0.680;2022-07-23T04:50:00;7.70;;;5.70;;
57249;SDS011;43102;52.014;-0.680;2022-07-23T04:51:00;7.70;;;5.70;;
57249;SDS011;43102;52.014;-0.680;2022-07-23T04:52:00;7.70;;;5.70;;
57249;SDS011;43102;52.014;-0.680;2022-07-23T04:53:00;7.70;;;5.70;;
57249;SDS011;43102;52.014;-0.680;2022-07-23T04:54:00;7.70;;;5.70;;
57249;SDS011;43102;52.014;-0.680;2022-07-23T04:55:00;7.70;;;5.70;;
57249;SDS011;43102;52.014;-0.680;2022-07-23T04:56:00;7.70;;;5.70;;
57249;SDS011;43102;52.014;-0.680;2022-07-23T04:57:00;7.70;;;5.70;;
57249;SDS011;43102;52.014;-0.680;2022-07-23T04:58:00;11.60;;;6.20;;
57249;SDS011;43102;52.014;-0.680;2022-07-23T04:59:00;11.60;;;6.20;;
57249;SDS011;43102;52.014;-0.680;2022-07-23T05:00:00;11.60;;;6.20;;
57249;SDS011;43102;52.014;-0.680;2022-07-23T05:01:00;11.60;;;6.20;;
57249;SDS011;43102;52.014;-0.680;2022-07-23T05:02:00;11.60;;;6.20;;
57249;SDS011;43102;52.014;-0.680;2022-07-23T05:03:01;11.60;;;6.20;;
57249;SDS011;43102;52.014;-0.680;2022-07-23T05:04:00;11.60;;;6.20;;
57249;SDS011;43102;52.014;-0.680;2022-07-23T05:05:00;11.60;;;6.20;;
57249;SDS011;43102;52.014;-0.680;2022-07-23T05:06:00;11.60;;;6.20;;
57249;SDS011;43102;52.014;-0.680;2022-07-23T05:07:00;11.60;;;6.20;;
57249;SDS011;43102;52.014;-0.680;2022-07-23T05:08:00;11.60;;;6.20;;
57249;SDS011;43102;52.014;-0.680;2022-07-23T05:09:00;11.60;;;6.20;;
57249;SDS011;43102;52.014;-0.680;2022-07-23T05:10:00;11.60;;;6.20;;
57249;SDS011;43102;52.014;-0.680;2022-07-23T05:11:00;11.60;;;6.20;;
57249;SDS011;43102;52.014;-0.680;2022-07-23T05:12:00;11.60;;;6.20;;
57249;SDS011;43102;52.014;-0.680;2022-07-23T05:13:00;11.60;;;6.20;;
57249;SDS011;43102;52.014;-0.680;2022-07-23T05:14:00;11.60;;;6.20;;
57249;SDS011;43102;52.014;-0.680;2022-07-23T05:15:00;11.60;;;6.20;;
57249;SDS011;43102;52.014;-0.680;2022-07-23T05:16:00;11.60;;;6.20;;
57249;SDS011;43102;52.014;-0.680;2022-07-23T05:17:00;11.60;;;6.20;;
57249;SDS011;43102;52.014;-0.680;2022-07-23T05:18:00;11.60;;;6.20;;
57249;SDS011;43102;52.014;-0.680;2022-07-23T05:19:00;11.60;;;6.20;;
57249;SDS011;43102;52.014;-0.680;2022-07-23T05:20:01;11.60;;;6.20;;
57249;SDS011;43102;52.014;-0.680;2022-07-23T05:21:00;11.60;;;6.20;;
57249;SDS011;43102;52.014;-0.680;2022-07-23T05:22:00;11.60;;;6.20;;
57249;SDS011;43102;52.014;-0.680;2022-07-23T05:23:00;11.60;;;6.20;;
57249;SDS011;43102;52.014;-0.680;2022-07-23T05:24:00;11.60;;;6.20;;
57249;SDS011;43102;52.014;-0.680;2022-07-23T05:25:00;11.60;;;6.20;;
57249;SDS011;43102;52.014;-0.680;2022-07-23T05:26:00;11.60;;;6.20;;
57249;SDS011;43102;52.014;-0.680;2022-07-23T05:27:00;11.60;;;6.20;;
57249;SDS011;43102;52.014;-0.680;2022-07-23T05:28:00;11.40;;;7.30;;
57249;SDS011;43102;52.014;-0.680;2022-07-23T05:29:00;11.40;;;7.30;;
57249;SDS011;43102;52.014;-0.680;2022-07-23T05:30:00;11.40;;;7.30;;
57249;SDS011;43102;52.014;-0.680;2022-07-23T05:31:00;11.40;;;7.30;;
57249;SDS011;43102;52.014;-0.680;2022-07-23T05:32:00;11.40;;;7.30;;
57249;SDS011;43102;52.014;-0.680;2022-07-23T05:33:00;11.40;;;7.30;;
57249;SDS011;43102;52.014;-0.680;2022-07-23T05:34:00;11.40;;;7.30;;
57249;SDS011;43102;52.014;-0.680;2022-07-23T05:35:00;11.40;;;7.30;;
57249;SDS011;43102;52.014;-0.680;2022-07-23T05:36:02;11.40;;;7.30;;
57249;SDS011;43102;52.014;-0.680;2022-07-23T05:37:00;11.40;;;7.30;;
57249;SDS011;43102;52.014;-0.680;2022-07-23T05:38:00;11.40;;;7.30;;
57249;SDS011;43102;52.014;-0.680;2022-07-23T05:39:00;11.40;;;7.30;;
57249;SDS011;43102;52.014;-0.680;2022-07-23T05:40:05;11.40;;;7.30;;
57249;SDS011;43102;52.014;-0.680;2022-07-23T05:41:01;11.40;;;7.30;;
57249;SDS011;43102;52.014;-0.680;2022-07-23T05:42:00;11.40;;;7.30;;
57249;SDS011;43102;52.014;-0.680;2022-07-23T05:43:00;11.40;;;7.30;;
57249;SDS011;43102;52.014;-0.680;2022-07-23T05:44:00;11.40;;;7.30;;
57249;SDS011;43102;52.014;-0.680;2022-07-23T05:45:00;11.40;;;7.30;;
57249;SDS011;43102;52.014;-0.680;2022-07-23T05:46:00;11.40;;;7.30;;
57249;SDS011;43102;52.014;-0.680;2022-07-23T05:47:00;11.40;;;7.30;;
57249;SDS011;43102;52.014;-0.680;2022-07-23T05:48:00;11.40;;;7.30;;
57249;SDS011;43102;52.014;-0.680;2022-07-23T05:49:01;11.40;;;7.30;;
57249;SDS011;43102;52.014;-0.680;2022-07-23T05:50:04;11.40;;;7.30;;
57249;SDS011;43102;52.014;-0.680;2022-07-23T05:51:00;11.40;;;7.30;;
57249;SDS011;43102;52.014;-0.680;2022-07-23T05:52:03;11.40;;;7.30;;
57249;SDS011;43102;52.014;-0.680;2022-07-23T05:53:00;11.40;;;7.30;;
57249;SDS011;43102;52.014;-0.680;2022-07-23T05:54:00;11.40;;;7.30;;
57249;SDS011;43102;52.014;-0.680;2022-07-23T05:55:00;11.40;;;7.30;;